createdAt,value
2022-07-30T00:01:45.004Z,25.21
2022-07-30T00:04:13.093Z,25.13
2022-07-30T00:06:40.902Z,25.05
2022-07-30T00:11:36.719Z,24.80
2022-07-30T00:14:04.637Z,24.64
2022-07-30T00:16:32.757Z,24.66
2022-07-30T00:21:36.302Z,24.57
2022-07-30T00:24:07.675Z,24.55
2022-07-30T00:26:35.400Z,24.46
2022-07-30T00:29:03.410Z,24.41
2022-07-30T00:31:33.179Z,24.42
2022-07-30T00:34:06.728Z,24.45
2022-07-30T00:36:38.005Z,24.71
2022-07-30T00:39:09.154Z,24.98
2022-07-30T00:41:56.638Z,25.09
2022-07-30T00:44:27.403Z,24.82
2022-07-30T00:46:56.192Z,25.03
2022-07-30T00:49:26.247Z,24.94
2022-07-30T00:54:25.977Z,24.88
2022-07-30T00:59:23.599Z,24.71
2022-07-30T01:01:52.331Z,24.57
2022-07-30T01:04:20.768Z,24.64
2022-07-30T01:06:48.479Z,25.23
2022-07-30T01:11:48.889Z,25.73
2022-07-30T01:14:17.378Z,25.48
2022-07-30T01:16:49.234Z,25.48
2022-07-30T01:19:42.124Z,25.56
2022-07-30T01:22:16.790Z,25.66
2022-07-30T01:24:57.620Z,25.50
2022-07-30T01:27:30.596Z,25.50
2022-07-30T01:30:00.147Z,25.34
2022-07-30T01:32:31.677Z,25.22
2022-07-30T01:35:01.598Z,25.33
2022-07-30T01:37:34.564Z,25.30
2022-07-30T01:40:05.012Z,25.37
2022-07-30T01:42:36.808Z,25.45
2022-07-30T01:45:07.307Z,25.08
2022-07-30T01:47:37.426Z,25.38
2022-07-30T01:50:11.010Z,24.93
2022-07-30T01:52:41.988Z,25.05
2022-07-30T01:55:17.024Z,25.14
2022-07-30T01:57:53.685Z,25.23
2022-07-30T02:00:23.915Z,25.34
2022-07-30T02:02:57.365Z,25.25
2022-07-30T02:05:28.627Z,25.95
2022-07-30T02:08:01.649Z,25.79
2022-07-30T02:10:35.592Z,25.39
2022-07-30T02:13:09.134Z,25.27
2022-07-30T02:15:42.004Z,25.58
2022-07-30T02:18:15.934Z,25.13
2022-07-30T02:21:02.635Z,25.11
2022-07-30T02:23:42.333Z,25.10
2022-07-30T02:26:16.544Z,24.95
2022-07-30T02:28:49.203Z,24.98
2022-07-30T02:31:20.052Z,24.96
2022-07-30T02:33:50.969Z,24.97
2022-07-30T02:36:20.858Z,25.00
2022-07-30T02:38:52.886Z,24.99
2022-07-30T02:41:23.848Z,24.93
2022-07-30T02:46:27.750Z,24.95
2022-07-30T02:48:58.598Z,24.92
2022-07-30T02:51:28.141Z,24.96
2022-07-30T02:53:59.404Z,24.98
2022-07-30T02:56:28.622Z,24.93
2022-07-30T02:59:06.211Z,25.07
2022-07-30T03:04:06.802Z,24.91
2022-07-30T03:06:37.222Z,24.75
2022-07-30T03:09:07.842Z,24.75
2022-07-30T03:11:37.483Z,24.69
2022-07-30T03:14:08.496Z,24.79
2022-07-30T03:16:38.882Z,25.84
2022-07-30T03:19:13.134Z,24.90
2022-07-30T03:21:41.931Z,24.90
2022-07-30T03:24:12.663Z,24.91
2022-07-30T03:26:42.449Z,25.28
2022-07-30T03:31:45.084Z,24.70
2022-07-30T03:34:13.603Z,24.58
2022-07-30T03:36:42.391Z,24.60
2022-07-30T03:39:13.818Z,24.59
2022-07-30T03:41:42.347Z,24.66
2022-07-30T03:44:12.615Z,24.75
2022-07-30T03:46:42.020Z,24.78
2022-07-30T03:49:11.785Z,24.97
2022-07-30T03:51:40.299Z,24.66
2022-07-30T03:54:13.780Z,24.66
2022-07-30T03:56:42.124Z,24.60
2022-07-30T03:59:14.604Z,24.74
2022-07-30T04:01:46.382Z,24.80
2022-07-30T04:04:15.333Z,24.86
2022-07-30T04:06:43.342Z,26.26
2022-07-30T04:09:13.390Z,25.53
2022-07-30T04:11:42.337Z,25.47
2022-07-30T04:14:12.282Z,25.25
2022-07-30T04:16:47.252Z,25.68
2022-07-30T04:19:18.179Z,25.37
2022-07-30T04:21:50.078Z,25.49
2022-07-30T04:24:19.504Z,26.47
2022-07-30T04:26:51.022Z,25.31
2022-07-30T04:29:24.446Z,25.40
2022-07-30T04:31:54.100Z,25.77
2022-07-30T04:34:22.896Z,25.31
2022-07-30T04:36:50.834Z,25.21
2022-07-30T04:39:18.601Z,25.41
2022-07-30T04:41:49.761Z,25.37
2022-07-30T04:44:20.843Z,25.12
2022-07-30T04:46:49.259Z,25.18
2022-07-30T04:49:19.206Z,25.27
2022-07-30T04:51:47.938Z,25.40
2022-07-30T04:54:18.712Z,26.31
2022-07-30T04:56:52.586Z,25.59
2022-07-30T04:59:30.879Z,25.42
2022-07-30T05:02:00.454Z,25.54
2022-07-30T05:04:29.738Z,25.57
2022-07-30T05:06:59.102Z,26.63
2022-07-30T05:09:27.643Z,25.53
2022-07-30T05:11:57.529Z,25.39
2022-07-30T05:14:29.095Z,25.64
2022-07-30T05:17:00.261Z,25.66
2022-07-30T05:19:28.403Z,25.47
2022-07-30T05:22:02.361Z,25.63
2022-07-30T05:24:32.772Z,25.59
2022-07-30T05:27:06.271Z,25.45
2022-07-30T05:29:34.077Z,25.58
2022-07-30T05:32:06.391Z,25.68
2022-07-30T05:34:35.558Z,25.85
2022-07-30T05:37:07.176Z,25.61
2022-07-30T05:39:57.413Z,25.42
2022-07-30T05:42:32.625Z,25.42
2022-07-30T05:45:03.395Z,25.57
2022-07-30T05:47:34.293Z,25.66
2022-07-30T05:50:05.575Z,25.47
2022-07-30T05:52:36.137Z,25.65
2022-07-30T05:55:04.214Z,25.48
2022-07-30T05:57:37.482Z,25.44
2022-07-30T06:00:06.724Z,25.52
2022-07-30T06:02:37.402Z,25.45
2022-07-30T06:05:11.540Z,25.87
2022-07-30T06:10:12.170Z,25.74
2022-07-30T06:12:40.202Z,25.94
2022-07-30T06:15:10.045Z,26.15
2022-07-30T06:17:42.955Z,26.25
2022-07-30T06:25:12.558Z,25.77
2022-07-30T06:27:51.006Z,25.69
2022-07-30T06:30:19.126Z,25.80
2022-07-30T06:32:48.778Z,26.75
2022-07-30T06:35:18.369Z,26.30
2022-07-30T06:40:19.139Z,25.94
2022-07-30T06:42:47.289Z,25.43
2022-07-30T06:45:15.269Z,25.67
2022-07-30T06:47:44.539Z,25.79
2022-07-30T06:50:12.635Z,25.49
2022-07-30T06:52:41.119Z,25.42
2022-07-30T06:55:12.563Z,26.16
2022-07-30T06:57:47.346Z,25.82
2022-07-30T07:00:16.029Z,25.83
2022-07-30T07:02:44.258Z,26.00
2022-07-30T07:05:12.393Z,26.25
2022-07-30T07:07:43.188Z,25.98
2022-07-30T07:10:15.452Z,27.37
2022-07-30T07:12:49.360Z,26.16
2022-07-30T07:15:18.089Z,26.51
2022-07-30T07:17:49.396Z,26.33
2022-07-30T07:20:18.569Z,26.43
2022-07-30T07:25:19.402Z,26.31
2022-07-30T07:28:12.195Z,26.48
2022-07-30T07:30:37.540Z,26.44
2022-07-30T07:33:05.898Z,26.33
2022-07-30T07:35:40.527Z,26.42
2022-07-30T07:38:18.947Z,26.38
2022-07-30T07:40:51.752Z,26.42
2022-07-30T07:43:25.514Z,26.64
2022-07-30T07:45:54.429Z,26.59
2022-07-30T07:48:22.525Z,26.76
2022-07-30T07:50:51.008Z,26.81
2022-07-30T07:53:18.848Z,26.73
2022-07-30T07:55:47.812Z,26.95
2022-07-30T07:58:26.087Z,26.81
2022-07-30T08:00:59.832Z,26.97
2022-07-30T08:03:29.550Z,28.24
2022-07-30T08:06:04.767Z,27.26
2022-07-30T08:08:38.155Z,27.23
2022-07-30T08:11:10.624Z,26.95
2022-07-30T08:13:48.771Z,26.84
2022-07-30T08:16:25.469Z,26.79
2022-07-30T08:19:01.265Z,27.07
2022-07-30T08:21:32.812Z,26.66
2022-07-30T08:24:01.628Z,26.97
2022-07-30T08:26:33.050Z,27.87
2022-07-30T08:29:00.888Z,27.73
2022-07-30T08:31:37.250Z,27.25
2022-07-30T08:34:06.252Z,26.73
2022-07-30T08:36:35.015Z,26.79
2022-07-30T08:39:05.666Z,26.69
2022-07-30T08:41:36.168Z,27.36
2022-07-30T08:44:12.586Z,27.22
2022-07-30T08:46:47.742Z,27.28
2022-07-30T08:49:22.680Z,27.04
2022-07-30T08:51:54.631Z,27.36
2022-07-30T08:54:23.624Z,27.67
2022-07-30T08:56:53.782Z,28.66
2022-07-30T08:59:24.397Z,27.86
2022-07-30T09:02:14.207Z,27.89
2022-07-30T09:04:42.074Z,27.83
2022-07-30T09:07:10.103Z,28.04
2022-07-30T09:09:38.753Z,28.00
2022-07-30T09:12:34.360Z,28.10
2022-07-30T09:15:08.872Z,28.19
2022-07-30T09:17:54.851Z,28.52
2022-07-30T09:20:28.233Z,28.67
2022-07-30T09:23:01.799Z,29.60
2022-07-30T09:25:38.088Z,28.63
2022-07-30T09:28:16.261Z,28.59
2022-07-30T09:30:47.675Z,28.84
2022-07-30T09:33:32.289Z,28.98
2022-07-30T09:38:43.954Z,29.25
2022-07-30T09:41:36.171Z,29.23
2022-07-30T09:44:07.522Z,29.99
2022-07-30T09:46:53.717Z,30.76
2022-07-30T09:49:29.353Z,30.67
2022-07-30T09:52:30.458Z,29.59
2022-07-30T09:54:58.730Z,29.23
2022-07-30T09:57:28.535Z,29.18
2022-07-30T09:59:58.121Z,29.19
2022-07-30T10:02:40.578Z,29.16
2022-07-30T10:05:16.604Z,29.19
2022-07-30T10:07:57.479Z,29.25
2022-07-30T10:10:32.859Z,29.20
2022-07-30T10:13:04.865Z,29.33
2022-07-30T10:15:36.625Z,28.77
2022-07-30T10:18:08.689Z,28.78
2022-07-30T10:20:43.356Z,29.25
2022-07-30T10:23:24.031Z,29.22
2022-07-30T10:26:04.030Z,29.16
2022-07-30T10:28:38.434Z,29.16
2022-07-30T10:38:52.588Z,28.87
2022-07-30T10:41:47.415Z,28.70
2022-07-30T10:44:37.119Z,28.88
2022-07-30T10:47:16.889Z,28.55
2022-07-30T10:49:59.955Z,28.54
2022-07-30T10:53:01.382Z,29.59
2022-07-30T10:55:38.595Z,28.29
2022-07-30T10:58:17.865Z,29.05
2022-07-30T11:03:41.444Z,27.84
2022-07-30T11:06:27.709Z,28.08
2022-07-30T11:12:01.746Z,27.85
2022-07-30T11:15:07.171Z,27.73
2022-07-30T11:18:02.342Z,27.90
2022-07-30T11:20:36.561Z,27.52
2022-07-30T11:23:13.972Z,28.23
2022-07-30T11:25:51.804Z,28.30
2022-07-30T11:28:49.820Z,27.61
2022-07-30T11:31:56.536Z,28.44
2022-07-30T11:34:31.226Z,27.38
2022-07-30T11:37:31.835Z,27.71
2022-07-30T11:43:20.528Z,28.10
2022-07-30T11:46:29.229Z,27.13
2022-07-30T11:49:03.483Z,27.23
2022-07-30T11:51:46.637Z,28.06
2022-07-30T11:54:21.603Z,27.45
2022-07-30T12:00:02.132Z,27.61
2022-07-30T12:05:21.038Z,27.58
2022-07-30T12:07:53.835Z,27.58
2022-07-30T12:10:27.147Z,28.21
2022-07-30T12:13:19.448Z,27.48
2022-07-30T12:16:04.135Z,27.88
2022-07-30T12:18:40.464Z,28.96
2022-07-30T12:23:49.062Z,28.48
2022-07-30T12:26:29.715Z,28.27
2022-07-30T12:29:01.654Z,28.12
2022-07-30T12:31:41.781Z,27.87
2022-07-30T12:34:24.578Z,28.80
2022-07-30T12:40:16.561Z,29.24
2022-07-30T12:43:18.772Z,28.86
2022-07-30T12:46:06.360Z,27.55
2022-07-30T12:48:44.599Z,27.71
2022-07-30T12:51:13.580Z,27.30
2022-07-30T12:56:41.850Z,28.34
2022-07-30T12:59:25.906Z,27.91
2022-07-30T13:02:01.008Z,27.85
2022-07-30T13:04:36.081Z,27.62
2022-07-30T13:07:11.208Z,28.33
2022-07-30T13:09:43.526Z,28.01
2022-07-30T13:12:20.020Z,27.30
2022-07-30T13:17:52.838Z,27.68
2022-07-30T13:20:30.838Z,27.03
2022-07-30T13:23:07.603Z,26.83
2022-07-30T13:25:46.217Z,27.11
2022-07-30T13:28:19.914Z,27.58
2022-07-30T13:33:48.558Z,26.77
2022-07-30T13:36:21.250Z,26.84
2022-07-30T13:38:55.338Z,26.69
2022-07-30T13:41:34.368Z,27.76
2022-07-30T13:46:44.193Z,26.64
2022-07-30T13:49:34.129Z,26.70
2022-07-30T13:52:08.833Z,26.66
2022-07-30T13:54:46.499Z,26.77
2022-07-30T14:00:17.950Z,26.66
2022-07-30T14:02:53.402Z,26.54
2022-07-30T14:05:50.526Z,26.57
2022-07-30T14:08:29.192Z,26.39
2022-07-30T14:11:02.814Z,27.42
2022-07-30T14:13:41.295Z,26.70
2022-07-30T14:16:35.332Z,26.50
2022-07-30T14:19:07.843Z,26.87
2022-07-30T14:22:09.335Z,27.09
2022-07-30T14:24:41.070Z,26.83
2022-07-30T14:27:10.903Z,27.05
2022-07-30T14:29:45.379Z,26.69
2022-07-30T14:32:31.024Z,27.10
2022-07-30T14:35:04.650Z,26.53
2022-07-30T14:37:36.842Z,26.49
2022-07-30T14:40:16.930Z,26.67
2022-07-30T14:42:44.721Z,26.37
2022-07-30T14:45:16.665Z,27.37
2022-07-30T14:52:53.889Z,28.62
2022-07-30T14:55:24.462Z,27.24
2022-07-30T14:57:52.334Z,26.75
2022-07-30T15:00:21.298Z,26.80
2022-07-30T15:02:52.567Z,26.68
2022-07-30T15:05:23.840Z,26.86
2022-07-30T15:07:52.166Z,28.44
2022-07-30T15:10:21.084Z,27.08
2022-07-30T15:15:19.338Z,26.88
2022-07-30T15:17:50.445Z,26.51
2022-07-30T15:20:19.642Z,27.57
2022-07-30T15:22:49.888Z,26.62
2022-07-30T15:25:20.428Z,26.83
2022-07-30T15:27:52.398Z,27.16
2022-07-30T15:32:52.768Z,26.94
2022-07-30T15:35:22.550Z,27.11
2022-07-30T15:37:54.525Z,27.06
2022-07-30T15:40:24.962Z,26.46
2022-07-30T15:47:57.809Z,26.47
2022-07-30T15:50:25.924Z,25.89
2022-07-30T15:53:03.819Z,26.90
2022-07-30T15:55:47.455Z,26.03
2022-07-30T15:58:15.828Z,26.32
2022-07-30T16:00:51.029Z,26.78
2022-07-30T16:03:19.217Z,26.42
2022-07-30T16:05:52.191Z,25.61
2022-07-30T16:08:21.666Z,26.55
2022-07-30T16:10:50.156Z,26.04
2022-07-30T16:13:18.712Z,26.27
2022-07-30T16:18:19.151Z,25.92
2022-07-30T16:20:47.046Z,25.78
2022-07-30T16:23:20.819Z,25.30
2022-07-30T16:25:53.054Z,25.54
2022-07-30T16:28:21.814Z,26.13
2022-07-30T16:30:51.766Z,25.91
2022-07-30T16:33:21.786Z,26.73
2022-07-30T16:35:53.223Z,27.06
2022-07-30T16:38:25.245Z,27.34
2022-07-30T16:40:53.444Z,27.24
2022-07-30T16:43:25.249Z,26.58
2022-07-30T16:45:54.078Z,26.70
2022-07-30T16:50:56.272Z,27.08
2022-07-30T16:53:24.468Z,27.46
2022-07-30T16:55:52.460Z,26.76
2022-07-30T16:58:21.417Z,26.43
2022-07-30T17:00:57.322Z,26.61
2022-07-30T17:05:54.134Z,26.72
2022-07-30T17:08:24.939Z,27.76
2022-07-30T17:10:53.574Z,27.19
2022-07-30T17:13:22.701Z,25.99
2022-07-30T17:15:53.698Z,26.41
2022-07-30T17:18:24.379Z,26.56
2022-07-30T17:20:58.623Z,26.10
2022-07-30T17:23:27.528Z,25.46
2022-07-30T17:25:59.803Z,25.80
2022-07-30T17:28:31.825Z,26.45
2022-07-30T17:31:07.258Z,26.42
2022-07-30T17:33:35.651Z,26.47
2022-07-30T17:36:05.525Z,26.76
2022-07-30T17:38:40.251Z,26.01
2022-07-30T17:41:13.600Z,25.71
2022-07-30T17:43:42.251Z,26.44
2022-07-30T17:46:15.782Z,26.24
2022-07-30T17:48:43.537Z,26.70
2022-07-30T17:51:12.505Z,25.55
2022-07-30T17:53:42.231Z,26.58
2022-07-30T17:56:26.847Z,25.37
2022-07-30T17:58:59.328Z,26.31
2022-07-30T18:01:27.502Z,26.23
2022-07-30T18:03:59.033Z,25.96
2022-07-30T18:06:27.519Z,26.21
2022-07-30T18:08:56.360Z,25.15
2022-07-30T18:13:58.183Z,26.11
2022-07-30T18:16:27.020Z,25.35
2022-07-30T18:18:55.830Z,26.07
2022-07-30T18:23:55.837Z,25.82
2022-07-30T18:28:58.643Z,25.90
2022-07-30T18:31:30.276Z,25.95
2022-07-30T18:34:01.630Z,25.87
2022-07-30T18:36:30.068Z,25.51
2022-07-30T18:38:58.105Z,25.67
2022-07-30T18:41:33.426Z,26.18
2022-07-30T18:44:01.903Z,25.60
2022-07-30T18:46:30.903Z,26.30
2022-07-30T18:49:20.937Z,25.73
2022-07-30T18:51:52.424Z,26.40
2022-07-30T18:59:18.405Z,25.61
2022-07-30T19:01:47.070Z,25.66
2022-07-30T19:06:46.210Z,26.23
2022-07-30T19:09:17.539Z,26.37
2022-07-30T19:11:49.593Z,26.40
2022-07-30T19:14:24.472Z,26.52
2022-07-30T19:16:53.061Z,25.62
2022-07-30T19:19:22.656Z,26.23
2022-07-30T19:21:51.134Z,25.39
2022-07-30T19:24:21.843Z,25.88
2022-07-30T19:26:54.156Z,25.23
2022-07-30T19:29:26.120Z,25.81
2022-07-30T19:31:58.701Z,25.80
2022-07-30T19:34:26.747Z,24.77
2022-07-30T19:36:58.567Z,24.58
2022-07-30T19:39:29.815Z,25.48
2022-07-30T19:42:03.452Z,24.97
2022-07-30T19:47:09.372Z,25.54
2022-07-30T19:49:41.550Z,24.62
2022-07-30T19:52:23.389Z,25.41
2022-07-30T19:55:04.839Z,25.33
2022-07-30T19:57:54.195Z,24.60
2022-07-30T20:00:35.708Z,24.81
2022-07-30T20:03:12.700Z,25.45
2022-07-30T20:05:54.962Z,25.08
2022-07-30T20:11:04.729Z,25.70
2022-07-30T20:13:46.255Z,25.73
2022-07-30T20:18:49.727Z,25.16
2022-07-30T20:21:57.756Z,25.28
2022-07-30T20:24:18.097Z,25.10
2022-07-30T20:26:47.976Z,24.37
2022-07-30T20:29:23.002Z,25.00
2022-07-30T20:31:55.657Z,24.57
2022-07-30T20:36:59.262Z,24.98
2022-07-30T20:39:49.468Z,24.61
2022-07-30T20:45:06.621Z,25.59
2022-07-30T20:47:52.515Z,24.49
2022-07-30T20:50:31.454Z,24.64
2022-07-30T20:55:54.382Z,24.60
2022-07-30T20:58:30.148Z,24.98
2022-07-30T21:03:48.908Z,25.68
2022-07-30T21:06:24.388Z,25.44
2022-07-30T21:08:57.668Z,24.78
2022-07-30T21:14:08.705Z,24.51
2022-07-30T21:16:39.928Z,24.39
2022-07-30T21:19:10.410Z,24.14
2022-07-30T21:21:47.876Z,24.07
2022-07-30T21:24:22.426Z,24.21
2022-07-30T21:29:52.579Z,24.09
2022-07-30T21:32:29.027Z,23.90
2022-07-30T21:34:57.500Z,23.03
2022-07-30T21:37:36.695Z,23.88
2022-07-30T21:40:07.793Z,24.52
2022-07-30T21:42:48.501Z,24.51
2022-07-30T21:45:17.304Z,24.13
2022-07-30T21:47:47.549Z,23.54
2022-07-30T21:50:39.454Z,23.47
2022-07-30T21:56:06.816Z,24.48
2022-07-30T22:01:17.022Z,24.35
2022-07-30T22:04:04.806Z,24.19
2022-07-30T22:06:38.054Z,24.07
2022-07-30T22:09:19.291Z,24.42
2022-07-30T22:12:09.146Z,23.58
2022-07-30T22:14:49.442Z,24.58
2022-07-30T22:17:23.458Z,23.65
2022-07-30T22:20:02.214Z,24.41
2022-07-30T22:25:21.839Z,23.38
2022-07-30T22:27:55.779Z,24.17
2022-07-30T22:30:45.668Z,24.24
2022-07-30T22:33:16.715Z,23.49
2022-07-30T22:35:49.842Z,24.81
2022-07-30T22:38:25.281Z,23.62
2022-07-30T22:40:54.821Z,24.09
2022-07-30T22:43:41.000Z,23.90
2022-07-30T22:46:30.068Z,24.81
2022-07-30T22:49:25.075Z,25.20
2022-07-30T22:52:28.970Z,24.92
2022-07-30T22:55:09.342Z,24.07
2022-07-30T22:57:42.349Z,23.64
2022-07-30T23:00:28.174Z,23.50
2022-07-30T23:02:58.283Z,23.44
2022-07-30T23:05:31.840Z,24.46
2022-07-30T23:08:06.435Z,24.46
2022-07-30T23:12:28.646Z,24.53
2022-07-30T23:16:03.373Z,24.39
2022-07-30T23:18:36.037Z,23.36
2022-07-30T23:21:06.110Z,24.32
2022-07-30T23:23:38.158Z,24.00
2022-07-30T23:26:07.133Z,24.29
2022-07-30T23:28:37.233Z,23.58
2022-07-30T23:33:42.594Z,24.35
2022-07-30T23:38:39.582Z,24.14
2022-07-30T23:41:09.522Z,23.81
2022-07-30T23:43:38.033Z,23.89
2022-07-30T23:46:11.523Z,22.80
2022-07-30T23:48:45.564Z,23.74
2022-07-30T23:51:14.108Z,22.99
2022-07-30T23:53:46.192Z,22.61
2022-07-30T23:56:20.976Z,22.58
2022-07-30T23:58:53.770Z,23.49
